Skip Navigation Links Skip Navigation Links

Current Weather

Aeroflex-Andover, Andover, N.J.

For information only: do not use for flight planning or navigation.
Latest weather
Observation time Thursday, November 14, 2019 7:54 PM EST
Local time Thursday, November 14, 2019 8:09 PM EST
Flight conditions Conditions unknown
Winds
Wind direction South-Southwest (200°)
Wind speed 3 mph
Sky condition
Ceiling unlimited
Temperature 34°F
Dewpoint 25°F
Altimeter 30.28 in.Hg
Derived measurements
Relative humidity 69%
Wind chill 31°F
Density altitude -1452 ft.
Sea-level pressure 30.32 in.Hg
Remarks
Fully automated report.
Automated weather observing station without precipitation discriminator.
METAR K12N 150054Z AUTO 20003KT 01/M04 A3028 RMK AO1 SLP266 T00111039

Settings

Location code

InnerDrive.Weather 4.0.6770.0 Release CLR 4.0.30319.42000
Copyright ©2018 Inner Drive Technology. All rights reserved. Portions Copyright ©1986-2018 David Braverman.

Find weather

Site navigation


Skip Navigation Links

Place info

Page info

PayPal - The safer, easier way to pay online!

Return home.

Copyright ©2019 Inner Drive Technology. Purveyors of fine, hand-crafted computer software. Page printed 2019-11-15T01:09:36 UTC.